createdAt,value
2017-11-17T00:00:02.216Z,77
2017-11-17T00:01:09.731Z,77
2017-11-17T00:02:16.748Z,77
2017-11-17T00:03:21.208Z,77.3
2017-11-17T00:04:23.694Z,77.2
2017-11-17T00:05:26.196Z,77.4
2017-11-17T00:06:28.810Z,77.4
2017-11-17T00:07:31.310Z,77.4
2017-11-17T00:08:34.093Z,77.4
2017-11-17T00:09:36.907Z,77.4
2017-11-17T00:10:40.166Z,77.3
2017-11-17T00:11:42.672Z,77.3
2017-11-17T00:12:45.169Z,77.2
2017-11-17T00:13:47.968Z,77.2
2017-11-17T00:14:50.474Z,77.2
2017-11-17T00:15:52.989Z,77.3
2017-11-17T00:16:55.473Z,77.2
2017-11-17T00:17:57.989Z,77.3
2017-11-17T00:19:00.487Z,77.2
2017-11-17T00:20:02.988Z,77.3
2017-11-17T00:21:05.479Z,77.4
2017-11-17T00:22:07.997Z,77.4
2017-11-17T00:23:10.776Z,77.5
2017-11-17T00:24:13.286Z,77.4
2017-11-17T00:25:15.799Z,77.6
2017-11-17T00:26:18.277Z,77.6
2017-11-17T00:27:21.065Z,77.7
2017-11-17T00:28:23.570Z,77.8
2017-11-17T00:29:26.061Z,77.7
2017-11-17T00:30:28.565Z,77.8
2017-11-17T00:31:31.060Z,77.7
2017-11-17T00:32:33.558Z,77.9
2017-11-17T00:33:36.677Z,78
2017-11-17T00:34:39.482Z,77.9
2017-11-17T00:35:42.280Z,78.1
2017-11-17T00:36:45.052Z,77.9
2017-11-17T00:37:47.564Z,77.8
2017-11-17T00:38:50.079Z,77.8
2017-11-17T00:39:52.577Z,77.7
2017-11-17T00:40:55.366Z,77.8
2017-11-17T00:41:57.865Z,77.6
2017-11-17T00:43:00.370Z,77.6
2017-11-17T00:44:03.203Z,77.5
2017-11-17T00:45:05.999Z,77.5
2017-11-17T00:46:08.491Z,77.5
2017-11-17T00:47:10.990Z,77.6
2017-11-17T00:48:13.478Z,77.5
2017-11-17T00:49:15.997Z,77.5
2017-11-17T00:50:18.510Z,77.4
2017-11-17T00:51:20.991Z,77.5
2017-11-17T00:52:23.493Z,77.4
2017-11-17T00:53:25.989Z,77.3
2017-11-17T00:54:28.486Z,77.4
2017-11-17T00:55:30.987Z,77.3
2017-11-17T00:56:33.481Z,77.3
2017-11-17T00:57:36.292Z,77.2
2017-11-17T00:58:38.797Z,77.2
2017-11-17T00:59:41.294Z,77
2017-11-17T01:00:43.788Z,76.9
2017-11-17T01:01:46.283Z,77
2017-11-17T01:02:49.081Z,77
2017-11-17T01:03:51.574Z,76.8
2017-11-17T01:04:54.080Z,77
2017-11-17T01:05:56.575Z,77
2017-11-17T01:06:59.068Z,77
2017-11-17T01:08:01.574Z,77
2017-11-17T01:09:04.076Z,77
2017-11-17T01:10:06.556Z,77
2017-11-17T01:11:09.363Z,77
2017-11-17T01:12:12.155Z,77.1
2017-11-17T01:13:14.974Z,76.9
2017-11-17T01:14:17.472Z,76.9
2017-11-17T01:15:19.981Z,76.9
2017-11-17T01:16:22.467Z,76.6
2017-11-17T01:17:24.989Z,76.8
2017-11-17T01:18:27.480Z,76.6
2017-11-17T01:19:30.277Z,76.7
2017-11-17T01:20:32.777Z,76.7
2017-11-17T01:21:35.268Z,76.4
2017-11-17T01:22:38.071Z,76.5
2017-11-17T01:23:40.578Z,76.6
2017-11-17T01:24:43.357Z,76.6
2017-11-17T01:25:46.156Z,76.5
2017-11-17T01:26:48.671Z,76.6
2017-11-17T01:27:51.164Z,76.7
2017-11-17T01:28:53.663Z,76.5
2017-11-17T01:29:56.472Z,76.5
2017-11-17T01:30:58.971Z,76
2017-11-17T01:32:01.461Z,76.3
2017-11-17T01:33:03.963Z,76.1
2017-11-17T01:34:06.468Z,76.3
2017-11-17T01:35:09.268Z,76.4
2017-11-17T01:36:11.759Z,76.4
2017-11-17T01:37:14.259Z,76.6
2017-11-17T01:38:16.758Z,76.6
2017-11-17T01:39:19.258Z,76.4
2017-11-17T01:40:21.761Z,76.3
2017-11-17T01:41:24.248Z,76.4
2017-11-17T01:42:26.746Z,76.4
2017-11-17T01:43:29.243Z,76.4
2017-11-17T01:44:31.748Z,76.3
2017-11-17T01:45:34.261Z,76.4
2017-11-17T01:46:36.740Z,76.1
2017-11-17T01:47:39.237Z,76.2
2017-11-17T01:48:41.756Z,76.4
2017-11-17T01:49:44.241Z,76.3
2017-11-17T01:50:47.028Z,76
2017-11-17T01:51:49.535Z,76.1
2017-11-17T01:52:52.027Z,76
2017-11-17T01:53:54.533Z,76
2017-11-17T01:54:57.033Z,76.2
2017-11-17T01:55:59.517Z,76.3
2017-11-17T01:57:02.017Z,76.3
2017-11-17T01:58:04.512Z,76.3
2017-11-17T01:59:07.005Z,76.4
2017-11-17T02:00:09.493Z,76.4
2017-11-17T02:01:12.001Z,76.4
2017-11-17T02:02:14.497Z,76.4
2017-11-17T02:03:17.000Z,76.3
2017-11-17T02:04:19.503Z,76.3
2017-11-17T02:05:21.995Z,76.3
2017-11-17T02:06:24.487Z,76.2
2017-11-17T02:07:27.300Z,76.3
2017-11-17T02:08:29.787Z,76.2
2017-11-17T02:09:32.590Z,76.3
2017-11-17T02:10:35.069Z,76.2
2017-11-17T02:11:37.576Z,76.2
2017-11-17T02:12:40.072Z,76.2
2017-11-17T02:13:42.580Z,76.3
2017-11-17T02:14:45.068Z,76.3
2017-11-17T02:15:47.569Z,76.2
2017-11-17T02:16:50.067Z,76.2
2017-11-17T02:17:52.571Z,76
2017-11-17T02:18:55.071Z,75.8
2017-11-17T02:19:58.147Z,75.6
2017-11-17T02:21:00.643Z,75.8
2017-11-17T02:22:03.159Z,75.8
2017-11-17T02:23:05.645Z,75.6
2017-11-17T02:24:08.147Z,75.8
2017-11-17T02:25:10.644Z,75.9
2017-11-17T02:26:13.144Z,75.8
2017-11-17T02:27:15.642Z,75.8
2017-11-17T02:28:18.143Z,75.8
2017-11-17T02:29:20.626Z,75.8
2017-11-17T02:30:23.126Z,75.9
2017-11-17T02:31:25.645Z,75.9
2017-11-17T02:32:28.129Z,76
2017-11-17T02:33:30.636Z,76
2017-11-17T02:34:33.425Z,76.1
2017-11-17T02:35:35.923Z,76
2017-11-17T02:36:38.426Z,76
2017-11-17T02:37:40.923Z,76.1
2017-11-17T02:38:43.408Z,76.2
2017-11-17T02:39:46.208Z,76.3
2017-11-17T02:40:48.701Z,76.2
2017-11-17T02:41:51.203Z,76.4
2017-11-17T02:42:53.727Z,76.3
2017-11-17T02:43:56.810Z,76.3
2017-11-17T02:44:59.295Z,76.2
2017-11-17T02:46:01.798Z,76.1
2017-11-17T02:47:04.290Z,75.9
2017-11-17T02:48:06.794Z,76
2017-11-17T02:49:09.285Z,76
2017-11-17T02:50:11.789Z,75.8
2017-11-17T02:51:14.285Z,76
2017-11-17T02:52:16.814Z,76.1
2017-11-17T02:53:19.282Z,75.9
2017-11-17T02:54:21.781Z,76.1
2017-11-17T02:55:24.277Z,76.1
2017-11-17T02:56:26.782Z,76.1
2017-11-17T02:57:29.863Z,76.1
2017-11-17T02:58:32.362Z,76.2
2017-11-17T02:59:35.164Z,76.2
2017-11-17T03:00:37.673Z,76.3
2017-11-17T03:01:40.162Z,76.2
2017-11-17T03:02:42.659Z,76.3
2017-11-17T03:03:45.152Z,76.3
2017-11-17T03:04:47.638Z,76.2
2017-11-17T03:05:50.423Z,76.1
2017-11-17T03:06:52.938Z,76.1
2017-11-17T03:07:55.432Z,76.1
2017-11-17T03:08:57.932Z,76.1
2017-11-17T03:10:00.427Z,76.2
2017-11-17T03:11:03.551Z,76.1
2017-11-17T03:12:06.012Z,76.1
2017-11-17T03:13:08.819Z,75.9
2017-11-17T03:14:11.302Z,75.9
2017-11-17T03:15:13.804Z,76
2017-11-17T03:16:16.586Z,76
2017-11-17T03:17:19.089Z,75.9
2017-11-17T03:18:21.588Z,75.9
2017-11-17T03:19:24.085Z,76
2017-11-17T03:20:26.569Z,76
2017-11-17T03:21:29.079Z,76
2017-11-17T03:22:31.564Z,76
2017-11-17T03:23:34.059Z,75.9
2017-11-17T03:24:36.554Z,75.8
2017-11-17T03:25:39.054Z,75.9
2017-11-17T03:26:41.547Z,76
2017-11-17T03:27:44.358Z,75.9
2017-11-17T03:28:47.137Z,75.9
2017-11-17T03:29:49.633Z,75.9
2017-11-17T03:30:52.152Z,75.8
2017-11-17T03:31:54.653Z,75.9
2017-11-17T03:32:57.146Z,75.9
2017-11-17T03:33:59.639Z,75.9
2017-11-17T03:35:02.436Z,76
2017-11-17T03:36:04.933Z,76
2017-11-17T03:37:07.438Z,76
2017-11-17T03:38:09.930Z,76
2017-11-17T03:39:12.418Z,76
2017-11-17T03:40:14.929Z,75.8
2017-11-17T03:41:17.420Z,75.8
2017-11-17T03:42:19.908Z,75.9
2017-11-17T03:43:22.403Z,75.9
2017-11-17T03:44:25.476Z,76
2017-11-17T03:45:27.991Z,76
2017-11-17T03:46:30.481Z,76.1
2017-11-17T03:47:32.974Z,76.1
2017-11-17T03:48:35.463Z,76
2017-11-17T03:49:37.955Z,75.9
2017-11-17T03:50:40.445Z,76
2017-11-17T03:51:42.947Z,76
2017-11-17T03:52:45.425Z,76.1
2017-11-17T03:53:47.924Z,76
2017-11-17T03:54:50.440Z,76
2017-11-17T03:55:52.932Z,76.1
2017-11-17T03:56:55.441Z,76.1
2017-11-17T03:57:57.934Z,76
2017-11-17T03:59:00.426Z,75.9
2017-11-17T04:00:03.239Z,76
2017-11-17T04:01:05.726Z,75.9
2017-11-17T04:02:08.506Z,76
2017-11-17T04:03:10.993Z,76
2017-11-17T04:04:13.728Z,76
2017-11-17T04:05:16.225Z,76.1
2017-11-17T04:06:18.720Z,75.9
2017-11-17T04:07:21.219Z,76
2017-11-17T04:08:23.705Z,76
2017-11-17T04:09:26.215Z,76
2017-11-17T04:10:28.719Z,75.8
2017-11-17T04:11:31.197Z,75.9
2017-11-17T04:12:33.701Z,75.9
2017-11-17T04:13:36.193Z,75.9
2017-11-17T04:14:38.689Z,76
2017-11-17T04:15:41.177Z,75.9
2017-11-17T04:16:43.677Z,76
2017-11-17T04:17:46.170Z,76.1
2017-11-17T04:18:48.669Z,76.2
2017-11-17T04:19:51.307Z,76
2017-11-17T04:20:54.736Z,75.9
2017-11-17T04:21:57.241Z,75.9
2017-11-17T04:22:59.734Z,75.9
2017-11-17T04:24:02.229Z,75.8
2017-11-17T04:25:04.724Z,75.8
2017-11-17T04:26:07.506Z,75.8
2017-11-17T04:27:09.992Z,75.8
2017-11-17T04:28:12.500Z,75.9
2017-11-17T04:29:14.989Z,75.8
2017-11-17T04:30:17.479Z,76
2017-11-17T04:31:19.976Z,76
2017-11-17T04:32:22.479Z,76
2017-11-17T04:33:24.969Z,76
2017-11-17T04:34:27.468Z,75.8
2017-11-17T04:35:29.972Z,75.8
2017-11-17T04:36:32.450Z,75.8
2017-11-17T04:37:34.955Z,75.8
2017-11-17T04:38:37.443Z,75.8
2017-11-17T04:39:40.234Z,75.8
2017-11-17T04:40:43.051Z,75.7
2017-11-17T04:41:45.845Z,75.8
2017-11-17T04:42:48.327Z,75.9
2017-11-17T04:43:50.837Z,75.9
2017-11-17T04:44:53.321Z,75.9
2017-11-17T04:45:55.838Z,75.9
2017-11-17T04:46:58.627Z,75.8
2017-11-17T04:48:01.125Z,75.8
2017-11-17T04:49:03.924Z,75.8
2017-11-17T04:50:06.414Z,75.9
2017-11-17T04:51:08.911Z,75.9
2017-11-17T04:52:11.404Z,75.9
2017-11-17T04:53:13.903Z,75.9
2017-11-17T04:54:16.394Z,76
2017-11-17T04:55:18.873Z,75.9
2017-11-17T04:56:21.387Z,75.8
2017-11-17T04:57:24.176Z,75.8
2017-11-17T04:58:26.977Z,75.8
2017-11-17T04:59:29.472Z,75.8
2017-11-17T05:00:31.973Z,75.9
2017-11-17T05:01:34.464Z,75.9
2017-11-17T05:02:37.269Z,75.9
2017-11-17T05:03:39.766Z,75.9
2017-11-17T05:04:42.251Z,76
2017-11-17T05:05:44.747Z,75.9
2017-11-17T05:06:47.530Z,75.9
2017-11-17T05:07:50.021Z,75.9
2017-11-17T05:08:52.531Z,76
2017-11-17T05:09:55.019Z,75.9
2017-11-17T05:10:57.800Z,75.9
2017-11-17T05:12:00.311Z,75.9
2017-11-17T05:13:02.813Z,75.8
2017-11-17T05:14:05.610Z,75.9
2017-11-17T05:15:08.108Z,75.8
2017-11-17T05:16:10.598Z,75.9
2017-11-17T05:17:13.098Z,75.9
2017-11-17T05:18:15.598Z,75.9
2017-11-17T05:19:18.462Z,75.9
2017-11-17T05:20:21.038Z,75.8
2017-11-17T05:21:23.537Z,75.7
2017-11-17T05:22:26.327Z,75.6
2017-11-17T05:23:28.827Z,75.7
2017-11-17T05:24:31.309Z,75.8
2017-11-17T05:25:34.118Z,75.7
2017-11-17T05:26:36.607Z,75.7
2017-11-17T05:27:39.113Z,75.7
2017-11-17T05:28:41.602Z,75.8
2017-11-17T05:29:44.093Z,75.8
2017-11-17T05:30:46.593Z,75.8
2017-11-17T05:31:49.384Z,75.8
2017-11-17T05:32:51.863Z,75.7
2017-11-17T05:33:54.364Z,75.8
2017-11-17T05:34:56.852Z,75.8
2017-11-17T05:35:59.347Z,75.8
2017-11-17T05:37:01.840Z,75.8
2017-11-17T05:38:04.933Z,75.7
2017-11-17T05:39:07.428Z,75.7
2017-11-17T05:40:09.932Z,75.7
2017-11-17T05:41:12.423Z,75.8
2017-11-17T05:42:14.918Z,75.7
2017-11-17T05:43:17.721Z,75.8
2017-11-17T05:44:20.200Z,75.8
2017-11-17T05:45:22.698Z,75.8
2017-11-17T05:46:25.205Z,75.8
2017-11-17T05:47:27.707Z,75.8
2017-11-17T05:48:30.204Z,75.8
2017-11-17T05:49:32.706Z,75.7
2017-11-17T05:50:35.189Z,75.7
2017-11-17T05:51:37.696Z,75.7
2017-11-17T05:52:40.202Z,75.7
2017-11-17T05:53:42.683Z,75.6
2017-11-17T05:54:45.165Z,75.8
2017-11-17T05:55:47.971Z,75.8
2017-11-17T05:56:50.454Z,75.8
2017-11-17T05:57:52.965Z,75.8
2017-11-17T05:58:55.447Z,75.8
2017-11-17T05:59:57.944Z,75.8
2017-11-17T06:01:00.445Z,75.8
2017-11-17T06:02:03.225Z,75.8
2017-11-17T06:03:05.723Z,75.8
2017-11-17T06:04:08.534Z,75.8
2017-11-17T06:05:11.016Z,75.8
2017-11-17T06:06:13.519Z,75.8
2017-11-17T06:07:16.008Z,75.7
2017-11-17T06:08:18.504Z,75.8
2017-11-17T06:09:20.996Z,75.8
2017-11-17T06:10:23.501Z,75.6
2017-11-17T06:11:25.984Z,75.6
2017-11-17T06:12:28.489Z,75.6
2017-11-17T06:13:30.967Z,75.7
2017-11-17T06:14:33.465Z,75.8
2017-11-17T06:15:35.955Z,75.8
2017-11-17T06:16:38.453Z,76.6
2017-11-17T06:17:40.937Z,76.7
2017-11-17T06:18:43.426Z,76.7
2017-11-17T06:19:45.925Z,76.7
2017-11-17T06:20:48.413Z,76.7
2017-11-17T06:21:50.907Z,76.7
2017-11-17T06:22:53.403Z,76.7
2017-11-17T06:23:55.886Z,76.7
2017-11-17T06:24:58.690Z,76.8
2017-11-17T06:26:01.183Z,76.8
2017-11-17T06:27:03.958Z,76.7
2017-11-17T06:28:06.460Z,76.8
2017-11-17T06:29:09.267Z,76.7
2017-11-17T06:30:12.086Z,76.6
2017-11-17T06:31:14.881Z,76.6
2017-11-17T06:32:17.400Z,76.5
2017-11-17T06:33:20.182Z,76.6
2017-11-17T06:34:22.672Z,76.7
2017-11-17T06:35:25.318Z,76.7
2017-11-17T06:36:27.810Z,76.6
2017-11-17T06:37:30.309Z,76.6
2017-11-17T06:38:32.808Z,76.6
2017-11-17T06:39:35.290Z,76.6
2017-11-17T06:40:37.785Z,76.5
2017-11-17T06:41:40.587Z,76.5
2017-11-17T06:42:43.082Z,76.5
2017-11-17T06:43:45.576Z,76.6
2017-11-17T06:44:48.353Z,76.5
2017-11-17T06:45:51.426Z,76.7
2017-11-17T06:46:54.249Z,76.6
2017-11-17T06:47:56.744Z,76.6
2017-11-17T06:48:59.815Z,76.6
2017-11-17T06:50:02.321Z,76.7
2017-11-17T06:51:04.812Z,76.6
2017-11-17T06:52:07.607Z,76.6
2017-11-17T06:53:10.107Z,76.7
2017-11-17T06:54:12.601Z,76.7
2017-11-17T06:55:15.389Z,76.8
2017-11-17T06:56:17.886Z,76.8
2017-11-17T06:57:20.389Z,77
2017-11-17T06:58:22.862Z,76.9
2017-11-17T06:59:25.362Z,76.9
2017-11-17T07:00:27.850Z,77
2017-11-17T07:01:30.345Z,76.9
2017-11-17T07:02:33.153Z,76.9
2017-11-17T07:03:35.645Z,76.9
2017-11-17T07:04:38.137Z,77
2017-11-17T07:05:40.642Z,77
2017-11-17T07:06:43.141Z,77.1
2017-11-17T07:07:45.626Z,77.1
2017-11-17T07:08:48.113Z,77.2
2017-11-17T07:09:50.903Z,77.3
2017-11-17T07:10:53.396Z,77.5
2017-11-17T07:11:56.187Z,77.6
2017-11-17T07:12:58.673Z,77.8
2017-11-17T07:14:01.476Z,77.9
2017-11-17T07:15:03.977Z,77.9
2017-11-17T07:16:06.775Z,78.1
2017-11-17T07:17:09.862Z,78.2
2017-11-17T07:18:12.357Z,78.5
2017-11-17T07:19:14.856Z,78.5
2017-11-17T07:20:17.349Z,78.6
2017-11-17T07:21:19.860Z,78.7
2017-11-17T07:22:22.339Z,78.9
2017-11-17T07:23:24.832Z,78.1
2017-11-17T07:24:27.347Z,78.4
2017-11-17T07:25:29.826Z,78.4
2017-11-17T07:26:32.333Z,78.7
2017-11-17T07:27:34.824Z,78.8
2017-11-17T07:28:37.329Z,79
2017-11-17T07:29:39.805Z,79.2
2017-11-17T07:30:42.311Z,79.4
2017-11-17T07:31:44.809Z,79.4
2017-11-17T07:32:47.307Z,79.5
2017-11-17T07:33:49.807Z,79.7
2017-11-17T07:34:52.301Z,79.6
2017-11-17T07:35:55.088Z,79.9
2017-11-17T07:36:57.594Z,80
2017-11-17T07:38:00.384Z,80.1
2017-11-17T07:39:02.889Z,80
2017-11-17T07:40:05.380Z,80.2
2017-11-17T07:41:07.880Z,80.3
2017-11-17T07:42:10.660Z,80.5
2017-11-17T07:43:13.164Z,80.6
2017-11-17T07:44:15.658Z,80.6
2017-11-17T07:45:18.156Z,80.7
2017-11-17T07:46:20.653Z,80.8
2017-11-17T07:47:23.158Z,80.8
2017-11-17T07:48:26.234Z,80.9
2017-11-17T07:49:28.737Z,80.8
2017-11-17T07:50:31.218Z,80.3
2017-11-17T07:51:34.018Z,80
2017-11-17T07:52:36.513Z,79.4
2017-11-17T07:53:39.012Z,79.3
2017-11-17T07:54:41.501Z,79
2017-11-17T07:55:44.003Z,78.5
2017-11-17T07:56:46.514Z,78.1
2017-11-17T07:57:49.577Z,77.9
2017-11-17T07:58:52.076Z,77.9
2017-11-17T07:59:54.582Z,77.9
2017-11-17T08:00:57.372Z,78.1
2017-11-17T08:01:59.862Z,78.2
2017-11-17T08:03:02.673Z,78.7
2017-11-17T08:04:05.446Z,79.1
2017-11-17T08:05:07.951Z,79.5
2017-11-17T08:06:10.450Z,80
2017-11-17T08:07:13.232Z,80.3
2017-11-17T08:08:15.732Z,80.7
2017-11-17T08:09:18.242Z,81.2
2017-11-17T08:10:20.741Z,81.5
2017-11-17T08:11:23.537Z,82
2017-11-17T08:12:26.018Z,82.4
2017-11-17T08:13:28.515Z,82.6
2017-11-17T08:14:31.025Z,82.6
2017-11-17T08:15:33.528Z,82.4
2017-11-17T08:16:36.019Z,82.5
2017-11-17T08:17:38.826Z,82.8
2017-11-17T08:18:41.636Z,82.8
2017-11-17T08:19:44.151Z,82.8
2017-11-17T08:20:46.649Z,82.4
2017-11-17T08:21:49.423Z,82.3
2017-11-17T08:22:51.923Z,82.4
2017-11-17T08:23:54.421Z,82.1
2017-11-17T08:24:57.258Z,82
2017-11-17T08:25:59.770Z,81.9
2017-11-17T08:27:02.268Z,81.7
2017-11-17T08:28:04.774Z,81.6
2017-11-17T08:29:07.261Z,81.6
2017-11-17T08:30:09.769Z,81.3
2017-11-17T08:31:12.268Z,81.1
2017-11-17T08:32:14.775Z,81.1
2017-11-17T08:33:17.564Z,81.1
2017-11-17T08:34:20.068Z,81.1
2017-11-17T08:35:22.564Z,81
2017-11-17T08:36:25.070Z,81.1
2017-11-17T08:37:27.574Z,81.2
2017-11-17T08:38:30.076Z,81
2017-11-17T08:39:32.569Z,80.7
2017-11-17T08:40:35.090Z,80.9
2017-11-17T08:41:37.581Z,80.8
2017-11-17T08:42:40.084Z,80.5
2017-11-17T08:43:42.881Z,80.5
2017-11-17T08:44:45.402Z,80.5
2017-11-17T08:45:47.894Z,80.2
2017-11-17T08:46:50.402Z,80.3
2017-11-17T08:47:53.011Z,80
2017-11-17T08:48:55.954Z,80
2017-11-17T08:49:58.457Z,80.2
2017-11-17T08:51:00.965Z,80
2017-11-17T08:52:03.615Z,80
2017-11-17T08:53:06.338Z,80
2017-11-17T08:54:08.829Z,80.3
2017-11-17T08:55:11.339Z,80.3
2017-11-17T08:56:14.281Z,80.3
2017-11-17T08:57:16.783Z,80
2017-11-17T08:58:19.589Z,79.9
2017-11-17T08:59:22.087Z,80
2017-11-17T09:00:24.888Z,79.8
2017-11-17T09:01:27.399Z,79.6
2017-11-17T09:02:30.224Z,79.5
2017-11-17T09:03:32.729Z,78.7
2017-11-17T09:04:35.849Z,78.6
2017-11-17T09:05:38.350Z,78.5
2017-11-17T09:06:40.856Z,78.3
2017-11-17T09:07:43.363Z,78.2
2017-11-17T09:08:45.859Z,78.3
2017-11-17T09:09:48.670Z,78.4
2017-11-17T09:10:51.167Z,77.9
2017-11-17T09:11:53.976Z,78.2
2017-11-17T09:12:56.494Z,77.9
2017-11-17T09:13:59.010Z,78.1
2017-11-17T09:15:01.500Z,78.1
2017-11-17T09:16:04.015Z,78.2
2017-11-17T09:17:06.543Z,78.3
2017-11-17T09:18:09.033Z,78.3
2017-11-17T09:19:11.850Z,78.3
2017-11-17T09:20:14.349Z,78.3
2017-11-17T09:21:16.843Z,78.3
2017-11-17T09:22:19.374Z,78.3
2017-11-17T09:23:21.848Z,78.3
2017-11-17T09:24:24.355Z,78.1
2017-11-17T09:25:26.862Z,78.1
2017-11-17T09:26:29.370Z,78.2
2017-11-17T09:27:31.879Z,78.2
2017-11-17T09:28:34.366Z,77.5
2017-11-17T09:29:36.871Z,77.6
2017-11-17T09:30:39.393Z,77.6
2017-11-17T09:31:42.211Z,77.7
2017-11-17T09:32:44.738Z,77.8
2017-11-17T09:33:47.226Z,77.8
2017-11-17T09:34:49.735Z,77.6
2017-11-17T09:35:52.250Z,77.2
2017-11-17T09:36:55.050Z,76.9
2017-11-17T09:37:57.543Z,76.6
2017-11-17T09:39:00.052Z,76.4
2017-11-17T09:40:02.568Z,76.5
2017-11-17T09:41:05.076Z,76.4
2017-11-17T09:42:07.886Z,76.2
2017-11-17T09:43:10.385Z,76.1
2017-11-17T09:44:12.887Z,75.6
2017-11-17T09:45:15.411Z,75.6
2017-11-17T09:46:17.915Z,75.2
2017-11-17T09:47:20.417Z,75.1
2017-11-17T09:48:22.923Z,75.1
2017-11-17T09:49:25.430Z,75.1
2017-11-17T09:50:27.943Z,74.8
2017-11-17T09:51:30.457Z,74.7
2017-11-17T09:52:32.948Z,74.7
2017-11-17T09:53:35.449Z,74.4
2017-11-17T09:54:37.967Z,74.2
2017-11-17T09:55:40.767Z,74.4
2017-11-17T09:56:43.284Z,74.4
2017-11-17T09:57:45.790Z,74.2
2017-11-17T09:58:48.301Z,74.1
2017-11-17T09:59:50.809Z,74.1
2017-11-17T10:00:53.329Z,74
2017-11-17T10:01:55.838Z,73.8
2017-11-17T10:02:58.363Z,74
2017-11-17T10:04:00.859Z,73.7
2017-11-17T10:05:03.693Z,73.1
2017-11-17T10:06:06.510Z,72.7
2017-11-17T10:07:09.027Z,72.5
2017-11-17T10:08:11.533Z,72.8
2017-11-17T10:09:14.053Z,72.7
2017-11-17T10:10:16.857Z,72.8
2017-11-17T10:11:19.669Z,72.6
2017-11-17T10:12:22.184Z,72.3
2017-11-17T10:13:24.691Z,72.3
2017-11-17T10:14:27.490Z,71.8
2017-11-17T10:15:30.004Z,71.8
2017-11-17T10:16:32.788Z,71.5
2017-11-17T10:17:35.643Z,69.9
2017-11-17T10:18:38.432Z,70.1
2017-11-17T10:19:40.978Z,70.3
2017-11-17T10:20:43.457Z,70.7
2017-11-17T10:21:45.968Z,70.8
2017-11-17T10:22:48.474Z,70.8
2017-11-17T10:23:51.290Z,70.8
2017-11-17T10:24:54.109Z,70.9
2017-11-17T10:25:56.908Z,70.7
2017-11-17T10:26:59.423Z,70.4
2017-11-17T10:28:01.949Z,70.3
2017-11-17T10:29:04.761Z,69.8
2017-11-17T10:30:07.267Z,69.7
2017-11-17T10:31:09.788Z,69.5
2017-11-17T10:32:12.299Z,69.4
2017-11-17T10:33:14.812Z,69.4
2017-11-17T10:34:17.327Z,69.6
2017-11-17T10:35:19.822Z,69.7
2017-11-17T10:36:22.335Z,69.4
2017-11-17T10:37:24.866Z,69.1
2017-11-17T10:38:27.370Z,68.8
2017-11-17T10:39:29.897Z,68.9
2017-11-17T10:40:32.686Z,69
2017-11-17T10:41:35.195Z,68.9
2017-11-17T10:42:37.730Z,68.8
2017-11-17T10:43:40.233Z,68.8
2017-11-17T10:44:43.035Z,68.5
2017-11-17T10:45:45.554Z,68.4
2017-11-17T10:46:48.068Z,68.4
2017-11-17T10:47:50.588Z,68.2
2017-11-17T10:48:53.407Z,67.9
2017-11-17T10:49:55.906Z,67.5
2017-11-17T10:50:58.426Z,67.2
2017-11-17T10:52:00.957Z,66.5
2017-11-17T10:53:03.458Z,66.6
2017-11-17T10:54:05.972Z,66.6
2017-11-17T10:55:08.491Z,66.4
2017-11-17T10:56:11.006Z,66.6
2017-11-17T10:57:13.521Z,66.4
2017-11-17T10:58:16.038Z,65.9
2017-11-17T10:59:18.858Z,66.2
2017-11-17T11:00:21.367Z,66.4
2017-11-17T11:01:24.168Z,66.2
2017-11-17T11:02:26.684Z,65.6
2017-11-17T11:03:29.519Z,65.2
2017-11-17T11:04:32.031Z,65.3
2017-11-17T11:05:34.531Z,64.6
2017-11-17T11:06:37.039Z,64.6
2017-11-17T11:07:39.552Z,64.5
2017-11-17T11:08:42.084Z,63.4
2017-11-17T11:09:44.584Z,63.7
2017-11-17T11:10:47.108Z,63.6
2017-11-17T11:11:49.609Z,63.4
2017-11-17T11:12:52.123Z,63.5
2017-11-17T11:13:54.651Z,63.7
2017-11-17T11:14:57.166Z,63.9
2017-11-17T11:15:59.661Z,63
2017-11-17T11:17:02.183Z,62.5
2017-11-17T11:18:04.701Z,62.5
2017-11-17T11:19:07.210Z,62.2
2017-11-17T11:20:09.725Z,62.3
2017-11-17T11:21:12.238Z,62.5
2017-11-17T11:22:14.754Z,62.3
2017-11-17T11:23:17.380Z,62.3
2017-11-17T11:24:19.895Z,62.2
2017-11-17T11:25:22.722Z,62.3
2017-11-17T11:26:25.244Z,62.3
2017-11-17T11:27:27.762Z,62.6
2017-11-17T11:28:30.281Z,62.6
2017-11-17T11:29:32.785Z,61.9
2017-11-17T11:30:35.597Z,61.2
2017-11-17T11:31:38.104Z,61.3
2017-11-17T11:32:40.625Z,61.3
2017-11-17T11:33:43.138Z,61.4
2017-11-17T11:34:45.650Z,61.4
2017-11-17T11:35:48.162Z,61.1
2017-11-17T11:36:50.686Z,61.1
2017-11-17T11:37:53.198Z,61.2
2017-11-17T11:38:55.717Z,61.4
2017-11-17T11:39:58.217Z,61.4
2017-11-17T11:41:00.737Z,61.4
2017-11-17T11:42:03.255Z,61.2
2017-11-17T11:43:05.769Z,61.2
2017-11-17T11:44:08.292Z,60.9
2017-11-17T11:45:10.807Z,59.8
2017-11-17T11:46:13.616Z,59.6
2017-11-17T11:47:16.142Z,59.6
2017-11-17T11:48:18.656Z,59.5
2017-11-17T11:49:21.174Z,59.8
2017-11-17T11:50:24.001Z,60
2017-11-17T11:51:26.520Z,60
2017-11-17T11:52:29.036Z,60
2017-11-17T11:53:31.547Z,59.7
2017-11-17T11:54:34.061Z,59.4
2017-11-17T11:55:37.166Z,59.4
2017-11-17T11:56:39.701Z,58.7
2017-11-17T11:57:42.204Z,58.3
2017-11-17T11:58:44.705Z,57.6
2017-11-17T11:59:47.227Z,58
2017-11-17T12:00:49.740Z,58.2
2017-11-17T12:01:52.570Z,58.4
2017-11-17T12:02:55.089Z,56.4
2017-11-17T12:03:57.889Z,55.5
2017-11-17T12:05:00.701Z,54.9
2017-11-17T12:06:03.235Z,54.8
2017-11-17T12:07:05.751Z,55.5
2017-11-17T12:08:08.254Z,54.7
2017-11-17T12:09:10.778Z,54.5
2017-11-17T12:10:13.291Z,55.6
2017-11-17T12:11:16.094Z,56.4
2017-11-17T12:12:18.611Z,56.8
2017-11-17T12:13:21.121Z,57.2
2017-11-17T12:14:23.636Z,57.2
2017-11-17T12:15:26.154Z,55.4
2017-11-17T12:16:28.661Z,55
2017-11-17T12:17:31.481Z,55.7
2017-11-17T12:18:33.991Z,56.1
2017-11-17T12:19:36.793Z,56.2
2017-11-17T12:20:39.309Z,56.5
2017-11-17T12:21:41.821Z,56.5
2017-11-17T12:22:44.340Z,56.3
2017-11-17T12:23:46.846Z,56.5
2017-11-17T12:24:49.365Z,55.2
2017-11-17T12:25:55.119Z,55.5
2017-11-17T12:27:04.132Z,55.2
2017-11-17T12:28:10.779Z,54.2
2017-11-17T12:29:13.298Z,54.2
2017-11-17T12:30:15.796Z,54.3
2017-11-17T12:31:18.328Z,55.1
2017-11-17T12:32:20.827Z,55.3
2017-11-17T12:33:23.340Z,55.8
2017-11-17T12:34:25.857Z,55.6
2017-11-17T12:35:28.374Z,55.7
2017-11-17T12:36:30.898Z,55
2017-11-17T12:37:33.722Z,55.5
2017-11-17T12:38:36.218Z,54
2017-11-17T12:39:39.036Z,53.9
2017-11-17T12:40:41.854Z,53.8
2017-11-17T12:41:44.380Z,54
2017-11-17T12:42:46.968Z,53.6
2017-11-17T12:43:50.907Z,53.5
2017-11-17T12:44:53.441Z,53.4
2017-11-17T12:45:55.998Z,53.3
2017-11-17T12:46:58.832Z,53.2
2017-11-17T12:48:01.609Z,54
2017-11-17T12:49:04.268Z,54
2017-11-17T12:50:06.773Z,54.3
2017-11-17T12:51:09.364Z,53.6
2017-11-17T12:52:11.906Z,54.3
2017-11-17T12:53:14.420Z,54.4
2017-11-17T12:54:16.933Z,53.2
2017-11-17T12:55:19.483Z,52.9
2017-11-17T12:56:22.144Z,52.9
2017-11-17T12:57:24.668Z,53.2
2017-11-17T12:58:27.180Z,52.6
2017-11-17T12:59:29.701Z,53.5
2017-11-17T13:00:32.578Z,52.7
2017-11-17T13:01:35.417Z,53.2
2017-11-17T13:02:38.228Z,53.1
2017-11-17T13:03:40.746Z,53.3
2017-11-17T13:04:43.248Z,53.4
2017-11-17T13:05:46.395Z,53.4
2017-11-17T13:06:49.209Z,53.1
2017-11-17T13:07:51.721Z,53.9
2017-11-17T13:08:54.590Z,54.3
2017-11-17T13:09:57.142Z,54.5
2017-11-17T13:10:59.643Z,54.7
2017-11-17T13:12:02.470Z,54.3
2017-11-17T13:13:04.971Z,54
2017-11-17T13:14:07.773Z,54.2
2017-11-17T13:15:10.309Z,53.9
2017-11-17T13:16:12.805Z,54.2
2017-11-17T13:17:15.787Z,54.4
2017-11-17T13:18:18.586Z,54.2
2017-11-17T13:19:21.135Z,54.5
2017-11-17T13:20:23.674Z,54.5
2017-11-17T13:21:26.254Z,54.4
2017-11-17T13:22:28.765Z,54.4
2017-11-17T13:23:31.282Z,54.7
2017-11-17T13:24:36.653Z,54.8
2017-11-17T13:25:46.613Z,54.7
2017-11-17T13:27:01.569Z,54.4
2017-11-17T13:28:12.550Z,54.5
2017-11-17T13:29:25.193Z,54.5
2017-11-17T13:30:34.621Z,54.8
2017-11-17T13:31:44.811Z,54.3
2017-11-17T13:32:48.514Z,54.2
2017-11-17T13:33:58.087Z,54.4
2017-11-17T13:35:14.037Z,54.5
2017-11-17T13:36:25.969Z,54.8
2017-11-17T13:37:39.843Z,55
2017-11-17T13:38:53.978Z,55
2017-11-17T13:40:06.613Z,55.2
2017-11-17T13:41:17.933Z,55.5
2017-11-17T13:42:24.612Z,55.6
2017-11-17T13:43:27.115Z,55.5
2017-11-17T13:44:29.627Z,55.4
2017-11-17T13:45:32.798Z,55
2017-11-17T13:46:35.636Z,55
2017-11-17T13:47:38.179Z,55.2
2017-11-17T13:48:40.696Z,55.5
2017-11-17T13:49:43.194Z,55.6
2017-11-17T13:50:45.704Z,55.6
2017-11-17T13:51:48.210Z,55.6
2017-11-17T13:52:51.123Z,55.7
2017-11-17T13:53:54.543Z,55.4
2017-11-17T13:54:57.703Z,55.9
2017-11-17T13:56:00.769Z,56
2017-11-17T13:57:03.392Z,56.2
2017-11-17T13:58:06.290Z,56.3
2017-11-17T13:59:08.885Z,56.4
2017-11-17T14:00:11.688Z,56.6
2017-11-17T14:01:14.191Z,56.6
2017-11-17T14:02:16.712Z,56.6